Latest Weather Observations for Gympie

IDQ60901

Issued at 10:45 pm EST Wednesday 27 August 2014 (issued every 10 minutes, with the page automatically refreshed every 10 minutes)

About weather observations | Map of Brisbane area stations | Latest observations for Brisbane area | Other Formats
Station Details ID: 040093 Name: GYMPIE Lat: -26.18 Lon: 152.64 Height: 64.5 m
Data from the previous 72 hours. | See also: Recent months at Gympie
Date/Time
EST
Tmp

°C
App
Tmp
°C
Dew
Point
°C
Rel
Hum
%
Delta-T

°C
Wind Press
QNH
hPa
Press
MSL
hPa
Rain
since
9 am
mm
Dir
 
Spd
km/h
Gust
km/h
Spd
kts
Gust
kts
27/10:30pm 12.2 10.1 8.1 76 2.0 W 9 13 5 7 1015.5 1015.4 1.8
27/10:00pm 9.2 8.1 8.3 94 0.4 WNW 4 7 2 4 1015.7 1015.6 1.8
27/09:30pm 9.4 8.6 8.3 93 0.5 NNW 2 4 1 2 1015.6 1015.5 1.8
27/09:00pm 9.9 8.9 8.7 92 0.6 N 4 7 2 4 1015.5 1015.4 1.8
27/08:30pm 10.9 10.4 9.5 91 0.7 SSE 2 4 1 2 1015.7 1015.6 1.8
27/08:00pm 11.2 10.8 9.6 90 0.8 SSW 2 4 1 2 1015.9 1015.8 1.8
27/07:30pm 12.3 11.5 9.7 84 1.3 WSW 4 4 2 2 1016.1 1016.0 1.8
27/07:00pm 12.2 10.9 9.2 82 1.5 SW 6 9 3 5 1016.1 1016.0 1.8
27/06:30pm 13.9 13.7 8.9 72 2.5 CALM 0 0 0 0 1015.3 1015.2 1.8
27/06:00pm 14.3 12.8 8.3 67 3.0 S 6 9 3 5 1015.4 1015.3 1.8
27/05:30pm 15.5 14.0 8.3 62 3.6 S 6 15 3 8 1015.1 1015.0 1.8
27/05:00pm 16.1 15.1 8.8 62 3.7 S 4 7 2 4 1014.9 1014.8 1.8
27/04:30pm 16.3 14.5 10.8 70 2.9 SSW 11 24 6 13 1014.0 1013.9 1.8
27/04:00pm 16.6 14.9 11.3 71 2.9 SSW 11 19 6 10 1013.4 1013.3 1.8
27/03:30pm 17.3 16.3 12.4 73 2.7 S 9 17 5 9 1013.0 1012.9 1.8
27/03:00pm 15.6 15.1 12.5 82 1.7 SSE 7 11 4 6 1012.4 1012.3 1.8
27/02:30pm 16.4 16.2 13.1 81 1.8 S 6 15 3 8 1012.9 1012.8 1.2
27/02:00pm 16.8 16.6 12.9 78 2.2 SW 6 11 3 6 1013.3 1013.2 0.6
27/01:30pm 18.7 17.6 12.0 65 3.7 W 9 15 5 8 1013.3 1013.2 0.0
27/01:00pm 21.0 19.5 10.5 51 5.7 N 9 17 5 9 1013.2 1013.1 0.0
27/12:30pm 22.5 21.5 10.3 46 6.7 ENE 6 13 3 7 1013.5 1013.4 0.0
27/12:00pm 21.3 20.6 10.2 49 6.0 NNE 4 11 2 6 1014.5 1014.4 0.0
27/11:30am 21.0 21.4 11.3 54 5.4 CALM 0 4 0 2 1015.1 1015.0 0.0
27/11:00am 19.9 19.7 10.6 55 5.1 ENE 2 7 1 4 1015.8 1015.7 0.0
27/10:30am 19.3 18.8 10.8 58 4.6 SE 4 9 2 5 1016.2 1016.2 0.0
27/10:00am 19.6 19.5 12.1 62 4.2 SSE 4 7 2 4 1016.6 1016.6 0.0
27/09:30am 18.3 17.7 11.8 66 3.6 SSE 6 7 3 4 1016.5 1016.5 0.0
27/09:00am 17.7 18.0 13.4 76 2.4 SSE 4 6 2 3 1016.7 1016.7 0.0
27/08:30am 16.0 16.2 12.9 82 1.7 SSE 4 7 2 4 1016.7 1016.7 0.0
27/08:00am 14.0 14.4 12.4 90 0.9 SE 2 4 1 2 1016.4 1016.4 0.0
27/07:30am 13.4 14.2 12.5 94 0.5 CALM 0 0 0 0 1016.0 1015.9 0.0
27/07:00am 12.8 13.5 12.2 96 0.3 CALM 0 4 0 2 1015.5 1015.4 0.0
27/06:30am 12.5 13.1 12.0 97 0.3 CALM 0 0 0 0 1015.2 1015.1 0.0
27/06:00am 12.7 13.4 12.1 96 0.3 CALM 0 0 0 0 1015.2 1015.1 0.0
27/05:30am 12.6 13.2 12.0 96 0.3 CALM 0 0 0 0 1015.2 1015.1 0.0
27/05:00am 13.1 13.1 12.5 96 0.3 N 4 7 2 4 1015.3 1015.2 0.0
27/04:30am 12.6 13.2 12.0 96 0.3 CALM 0 0 0 0 1015.1 1015.0 0.0
27/04:00am 12.5 12.7 11.9 96 0.3 S 2 4 1 2 1014.8 1014.7 0.0
27/03:30am 12.7 12.6 12.1 96 0.3 ENE 4 7 2 4 1014.6 1014.5 0.0
27/03:00am 12.1 12.6 11.6 97 0.3 CALM 0 0 0 0 1015.5 1015.4 0.0
27/02:30am 12.0 12.1 11.5 97 0.3 ENE 2 4 1 2 1015.8 1015.7 0.0
27/02:00am 11.7 12.1 11.4 98 0.2 CALM 0 0 0 0 1016.2 1016.2 0.0
27/01:30am 10.9 9.9 10.4 97 0.3 WSW 6 7 3 4 1016.2 1016.2 0.0
27/01:00am 10.9 10.3 10.4 97 0.3 WSW 4 7 2 4 1016.4 1016.4 0.0
27/12:30am 11.2 10.7 10.6 96 0.3 N 4 6 2 3 1015.8 1015.7 0.0
27/12:00am 11.3 10.4 10.7 96 0.3 N 6 6 3 3 1016.8 1016.8 0.0
 
Date/Time
EST
Tmp

°C
App
Tmp
°C
Dew
Point
°C
Rel
Hum
%
Delta-T

°C
Wind Press
QNH
hPa
Press
MSL
hPa
Rain
since
9 am
mm
Dir
 
Spd
km/h
Gust
km/h
Spd
kts
Gust
kts
26/11:30pm 12.1 12.2 11.5 96 0.3 N 2 4 1 2 1016.8 1016.8 0.0
26/11:00pm 12.1 12.5 11.2 94 0.5 CALM 0 0 0 0 1016.7 1016.7 0.0
26/10:30pm 13.0 13.5 11.7 92 0.7 CALM 0 0 0 0 1016.7 1016.7 0.0
26/10:00pm 13.1 13.7 12.0 93 0.6 CALM 0 0 0 0 1016.9 1016.9 0.0
26/09:30pm 13.9 14.6 12.1 89 1.0 CALM 0 0 0 0 1016.8 1016.8 0.0
26/09:00pm 14.4 15.1 12.3 87 1.1 CALM 0 0 0 0 1016.8 1016.8 0.0
26/08:30pm 14.8 15.6 12.7 87 1.2 CALM 0 0 0 0 1016.8 1016.8 0.0
26/08:00pm 15.1 15.4 12.2 83 1.6 SE 2 4 1 2 1016.7 1016.7 0.0
26/07:30pm 15.5 15.9 12.4 82 1.7 SE 2 4 1 2 1016.6 1016.6 0.0
26/07:00pm 16.7 16.8 12.8 78 2.2 SE 4 4 2 2 1016.1 1016.0 0.0
26/06:30pm 17.9 18.4 12.8 72 2.9 ESE 2 4 1 2 1015.6 1015.5 0.0
26/06:00pm 19.0 18.5 12.7 67 3.5 ESE 7 13 4 7 1015.3 1015.2 0.0
26/05:30pm 19.9 19.5 12.9 64 4.0 E 7 11 4 6 1014.9 1014.8 0.0
26/05:00pm 21.0 19.6 12.2 57 5.0 SE 11 17 6 9 1014.5 1014.4 0.0
26/04:30pm 21.8 20.7 11.8 53 5.6 SE 9 19 5 10 1014.3 1014.2 0.0
26/04:00pm 22.2 21.0 11.6 51 5.9 SE 9 20 5 11 1014.2 1014.1 0.0
26/03:30pm 22.9 21.9 12.2 51 6.1 SE 9 15 5 8 1014.1 1014.0 0.0
26/03:00pm 23.0 21.7 11.1 47 6.6 SSE 9 15 5 8 1014.0 1013.9 0.0
26/02:30pm 22.8 21.7 11.8 50 6.2 SE 9 17 5 9 1014.0 1013.9 0.0
26/02:00pm 22.9 20.6 9.0 41 7.5 SE 11 19 6 10 1014.3 1014.2 0.0
26/01:30pm 22.5 20.7 9.3 43 7.1 SSE 9 17 5 9 1014.5 1014.4 0.0
26/01:00pm 23.8 22.9 11.5 46 6.9 SE 7 15 4 8 1014.8 1014.7 0.0
26/12:30pm 22.7 21.5 10.2 45 6.9 S 7 15 4 8 1015.3 1015.2 0.0
26/12:00pm 22.6 21.0 11.4 49 6.3 SSE 11 20 6 11 1015.9 1015.8 0.0
26/11:30am 22.4 20.8 11.5 50 6.1 SE 11 17 6 9 1016.6 1016.6 0.0
26/11:00am 21.6 20.5 11.9 54 5.4 SE 9 17 5 9 1017.2 1017.2 0.0
26/10:30am 20.7 19.6 12.1 58 4.8 SSE 9 17 5 9 1017.6 1017.6 0.0
26/10:00am 19.4 18.9 12.2 63 4.0 E 6 9 3 5 1017.9 1017.9 0.0
26/09:30am 17.9 17.7 11.9 68 3.3 SE 4 7 2 4 1018.1 1018.1 0.0
26/09:00am 16.3 16.6 12.3 77 2.2 SE 2 4 1 2 1018.2 1018.2 0.0
26/08:30am 14.1 14.7 12.0 87 1.1 CALM 0 0 0 0 1018.3 1018.3 0.0
26/08:00am 11.8 12.3 11.5 98 0.2 CALM 0 0 0 0 1018.3 1018.3 0.0
26/07:30am 9.4 9.3 9.3 99 0.0 CALM 0 0 0 0 1018.2 1018.2 0.0
26/07:00am 8.1 7.6 8.0 99 0.0 CALM 0 0 0 0 1018.1 1018.1 0.0
26/06:30am 7.4 6.7 7.1 98 0.1 CALM 0 0 0 0 1017.9 1017.9 0.0
26/06:00am 7.4 6.7 7.1 98 0.1 CALM 0 0 0 0 1017.6 1017.6 0.0
26/05:30am 7.8 7.2 7.5 98 0.1 CALM 0 0 0 0 1017.3 1017.3 0.0
26/05:00am 8.1 7.6 7.8 98 0.1 CALM 0 0 0 0 1017.0 1017.0 0.0
26/04:30am 8.4 8.0 8.1 98 0.1 CALM 0 0 0 0 1016.9 1016.9 0.0
26/04:00am 8.4 7.9 8.0 97 0.2 CALM 0 0 0 0 1017.0 1017.0 0.0
26/03:30am 8.6 7.5 8.3 98 0.1 NNE 4 6 2 3 1017.2 1017.2 0.0
26/03:00am 9.2 9.0 8.9 98 0.1 CALM 0 0 0 0 1017.3 1017.3 0.0
26/02:30am 9.7 9.5 9.2 97 0.2 CALM 0 0 0 0 1017.4 1017.4 0.0
26/02:00am 9.5 9.3 9.2 98 0.1 CALM 0 0 0 0 1017.8 1017.8 0.0
26/01:30am 9.7 9.5 9.2 97 0.2 CALM 0 0 0 0 1018.2 1018.2 0.0
26/01:00am 10.1 10.0 9.3 95 0.4 CALM 0 0 0 0 1018.4 1018.4 0.0
26/12:30am 10.8 10.9 10.0 95 0.4 CALM 0 0 0 0 1018.5 1018.5 0.0
26/12:00am 11.2 11.0 10.6 96 0.3 W 2 4 1 2 1018.7 1018.7 0.0
 
Date/Time
EST
Tmp

°C
App
Tmp
°C
Dew
Point
°C
Rel
Hum
%
Delta-T

°C
Wind Press
QNH
hPa
Press
MSL
hPa
Rain
since
9 am
mm
Dir
 
Spd
km/h
Gust
km/h
Spd
kts
Gust
kts
25/11:30pm 11.4 10.9 10.6 95 0.4 WSW 4 6 2 3 1018.9 1018.9 0.0
25/11:00pm 11.8 12.0 10.7 93 0.6 CALM 0 0 0 0 1019.0 1019.0 0.0
25/10:30pm 12.4 12.8 11.3 93 0.6 CALM 0 0 0 0 1019.1 1019.1 0.0
25/10:00pm 12.3 12.6 10.9 91 0.7 CALM 0 0 0 0 1019.3 1019.3 0.0
25/09:30pm 13.3 13.6 10.8 85 1.3 CALM 0 0 0 0 1019.5 1019.5 0.0
25/09:00pm 14.4 14.7 11.0 80 1.8 CALM 0 0 0 0 1019.5 1019.5 0.0
25/08:30pm 15.4 15.5 11.6 78 2.1 W 2 4 1 2 1019.3 1019.3 0.0
25/08:00pm 15.8 15.5 11.4 75 2.4 S 4 7 2 4 1019.3 1019.3 0.0
25/07:30pm 16.2 15.9 11.4 73 2.6 S 4 7 2 4 1019.2 1019.2 0.0
25/07:00pm 16.6 16.9 10.9 69 3.1 CALM 0 4 0 2 1019.1 1019.1 0.0
25/06:30pm 17.9 17.1 11.2 65 3.6 SE 6 9 3 5 1018.7 1018.7 0.0
25/06:00pm 18.6 17.7 11.2 62 4.0 SE 7 15 4 8 1018.2 1018.2 0.0
25/05:30pm 19.5 18.1 11.0 58 4.6 SE 9 15 5 8 1018.0 1018.0 0.0
25/05:00pm 20.6 19.8 11.8 57 4.9 SE 7 11 4 6 1017.7 1017.7 0.0
25/04:30pm 21.3 20.1 11.6 54 5.4 SE 9 17 5 9 1017.5 1017.5 0.0
25/04:00pm 21.7 20.7 12.3 55 5.3 SSE 9 15 5 8 1017.5 1017.5 0.0
25/03:30pm 21.6 20.0 11.6 53 5.6 SSE 11 20 6 11 1017.6 1017.6 0.0
25/03:00pm 22.0 19.9 12.5 54 5.4 SSE 15 22 8 12 1017.4 1017.4 0.0
25/02:30pm 21.7 20.1 12.8 57 5.1 SSE 13 20 7 11 1017.6 1017.6 0.0
25/02:00pm 20.7 18.3 12.7 60 4.5 SE 17 28 9 15 1017.9 1017.9 0.0
25/01:30pm 21.2 19.4 12.1 56 5.1 SE 13 24 7 13 1018.0 1018.0 0.0
25/01:00pm 21.6 20.2 12.2 55 5.3 S 11 20 6 11 1018.2 1018.2 0.0
25/12:30pm 21.5 19.4 12.4 56 5.2 S 15 26 8 14 1018.6 1018.6 0.0
25/12:00pm 21.1 19.7 12.3 57 5.0 SSE 11 20 6 11 1019.1 1019.1 0.0
25/11:30am 21.7 20.4 13.6 60 4.7 S 13 19 7 10 1019.4 1019.4 0.0
25/11:00am 20.8 18.7 12.5 59 4.7 S 15 26 8 14 1019.9 1019.9 0.0
25/10:30am 20.4 18.8 12.9 62 4.3 S 13 19 7 10 1020.2 1020.2 0.0
25/10:00am 20.2 18.3 12.9 63 4.1 S 15 24 8 13 1020.4 1020.4 0.0
25/09:30am 19.6 17.8 13.3 67 3.6 S 15 26 8 14 1020.6 1020.6 0.0
25/09:00am 18.6 16.2 12.6 68 3.4 S 17 26 9 14 1020.8 1020.8 0.2
25/08:30am 17.9 16.8 13.2 74 2.7 S 11 24 6 13 1020.6 1020.6 0.2
25/08:00am 15.4 15.3 13.2 87 1.2 S 6 7 3 4 1020.5 1020.5 0.2
25/07:30am 12.8 12.5 11.4 91 0.7 SE 4 6 2 3 1020.5 1020.5 0.2
25/07:00am 10.9 10.4 10.6 98 0.2 SW 4 6 2 3 1020.2 1020.2 0.2
25/06:30am 10.1 10.1 9.8 98 0.2 CALM 0 0 0 0 1020.2 1020.2 0.2
25/06:00am 9.5 9.3 9.2 98 0.1 CALM 0 0 0 0 1020.0 1020.0 0.2
25/05:30am 9.7 9.6 9.6 99 0.1 CALM 0 4 0 2 1019.6 1019.6 0.2
25/05:00am 9.2 9.0 8.9 98 0.1 CALM 0 0 0 0 1019.2 1019.2 0.0
25/04:30am 9.2 9.0 8.9 98 0.1 CALM 0 0 0 0 1019.2 1019.2 0.0
25/04:00am 9.0 8.7 8.6 97 0.2 CALM 0 0 0 0 1019.2 1019.2 0.0
25/03:30am 9.3 9.1 9.0 98 0.1 CALM 0 0 0 0 1019.3 1019.3 0.0
25/03:00am 9.4 9.2 8.9 97 0.2 CALM 0 0 0 0 1019.4 1019.4 0.0
25/02:30am 9.7 9.5 9.2 97 0.2 CALM 0 2 0 1 1019.7 1019.7 0.0
25/02:00am 9.8 9.3 9.3 97 0.2 NNW 2 6 1 3 1019.9 1019.9 0.0
25/01:30am 10.6 10.7 10.1 97 0.3 CALM 0 0 0 0 1020.4 1020.4 0.0
25/01:00am 10.8 10.9 10.2 96 0.3 CALM 0 0 0 0 1020.7 1020.7 0.0
25/12:30am 11.2 11.4 10.4 95 0.4 CALM 0 0 0 0 1021.0 1021.0 0.0
25/12:00am 11.7 12.1 11.1 96 0.3 CALM 0 0 0 0 1021.2 1021.2 0.0
 
Date/Time
EST
Tmp

°C
App
Tmp
°C
Dew
Point
°C
Rel
Hum
%
Delta-T

°C
Wind Press
QNH
hPa
Press
MSL
hPa
Rain
since
9 am
mm
Dir
 
Spd
km/h
Gust
km/h
Spd
kts
Gust
kts
24/11:30pm 12.2 12.6 11.4 95 0.4 CALM 0 0 0 0 1021.3 1021.3 0.0
24/11:00pm 12.3 12.7 11.4 94 0.5 CALM 0 0 0 0 1021.4 1021.4 0.0

Latest Capital City Observations: Canberra | Sydney | Melbourne | Brisbane | Adelaide | Perth | Hobart | Darwin

Other Formats:

Comma delimited format used in spreadsheet applications
http://www.bom.gov.au/fwo/IDQ60901/IDQ60901.94566.axf

JavaScript Object Notation format (JSON) in row-major order
http://www.bom.gov.au/fwo/IDQ60901/IDQ60901.94566.json